sensor_id;sensor_type;location;lat;lon;timestamp;temperature;humidity
51613;DHT22;37694;51.748;14.326;2023-02-28T00:00:11;22.70;38.80
51613;DHT22;37694;51.748;14.326;2023-02-28T00:02:41;22.70;38.80
51613;DHT22;37694;51.748;14.326;2023-02-28T00:05:09;22.70;38.80
51613;DHT22;37694;51.748;14.326;2023-02-28T00:07:35;22.60;38.80
51613;DHT22;37694;51.748;14.326;2023-02-28T00:10:01;22.60;38.80
51613;DHT22;37694;51.748;14.326;2023-02-28T00:12:27;22.60;38.80
51613;DHT22;37694;51.748;14.326;2023-02-28T00:14:53;22.60;38.90
51613;DHT22;37694;51.748;14.326;2023-02-28T00:17:19;22.60;38.80
51613;DHT22;37694;51.748;14.326;2023-02-28T00:19:47;22.50;39.00
51613;DHT22;37694;51.748;14.326;2023-02-28T00:22:14;22.50;39.00
51613;DHT22;37694;51.748;14.326;2023-02-28T00:24:40;22.50;39.00
51613;DHT22;37694;51.748;14.326;2023-02-28T00:27:06;22.50;39.20
51613;DHT22;37694;51.748;14.326;2023-02-28T00:29:31;22.50;39.20
51613;DHT22;37694;51.748;14.326;2023-02-28T00:31:57;22.50;39.10
51613;DHT22;37694;51.748;14.326;2023-02-28T00:34:23;22.50;39.10
51613;DHT22;37694;51.748;14.326;2023-02-28T00:36:48;22.50;39.10
51613;DHT22;37694;51.748;14.326;2023-02-28T00:39:14;22.50;39.00
51613;DHT22;37694;51.748;14.326;2023-02-28T00:41:40;22.50;39.00
51613;DHT22;37694;51.748;14.326;2023-02-28T00:44:06;22.50;39.10
51613;DHT22;37694;51.748;14.326;2023-02-28T00:46:32;22.50;39.00
51613;DHT22;37694;51.748;14.326;2023-02-28T00:48:58;22.50;39.00
51613;DHT22;37694;51.748;14.326;2023-02-28T00:51:23;22.40;38.90
51613;DHT22;37694;51.748;14.326;2023-02-28T00:53:49;22.40;39.00
51613;DHT22;37694;51.748;14.326;2023-02-28T00:56:15;22.40;38.80
51613;DHT22;37694;51.748;14.326;2023-02-28T00:58:40;22.40;38.80
51613;DHT22;37694;51.748;14.326;2023-02-28T01:01:06;22.40;38.80
51613;DHT22;37694;51.748;14.326;2023-02-28T01:03:32;22.40;38.80
51613;DHT22;37694;51.748;14.326;2023-02-28T01:05:58;22.30;38.70
51613;DHT22;37694;51.748;14.326;2023-02-28T01:08:24;22.30;38.70
51613;DHT22;37694;51.748;14.326;2023-02-28T01:10:51;22.20;38.70
51613;DHT22;37694;51.748;14.326;2023-02-28T01:13:18;22.30;38.70
51613;DHT22;37694;51.748;14.326;2023-02-28T01:15:51;22.20;38.70
51613;DHT22;37694;51.748;14.326;2023-02-28T01:18:17;22.20;38.70
51613;DHT22;37694;51.748;14.326;2023-02-28T01:20:43;22.20;38.80
51613;DHT22;37694;51.748;14.326;2023-02-28T01:23:10;22.10;38.80
51613;DHT22;37694;51.748;14.326;2023-02-28T01:25:36;22.10;38.80
51613;DHT22;37694;51.748;14.326;2023-02-28T01:28:01;22.10;38.80
51613;DHT22;37694;51.748;14.326;2023-02-28T01:30:27;22.10;38.70
51613;DHT22;37694;51.748;14.326;2023-02-28T01:32:53;22.10;38.90
51613;DHT22;37694;51.748;14.326;2023-02-28T01:35:19;22.10;38.90
51613;DHT22;37694;51.748;14.326;2023-02-28T01:37:45;22.10;38.90
51613;DHT22;37694;51.748;14.326;2023-02-28T01:40:11;22.10;38.80
51613;DHT22;37694;51.748;14.326;2023-02-28T01:42:37;22.10;38.80
51613;DHT22;37694;51.748;14.326;2023-02-28T01:45:22;22.10;38.70
51613;DHT22;37694;51.748;14.326;2023-02-28T01:47:54;22.10;38.70
51613;DHT22;37694;51.748;14.326;2023-02-28T01:50:23;22.10;38.70
51613;DHT22;37694;51.748;14.326;2023-02-28T01:52:52;22.10;38.80
51613;DHT22;37694;51.748;14.326;2023-02-28T01:55:20;22.10;38.80
51613;DHT22;37694;51.748;14.326;2023-02-28T01:57:51;22.10;38.70
51613;DHT22;37694;51.748;14.326;2023-02-28T02:00:21;22.10;38.70
51613;DHT22;37694;51.748;14.326;2023-02-28T02:02:51;22.00;38.60
51613;DHT22;37694;51.748;14.326;2023-02-28T02:05:23;22.00;38.50
51613;DHT22;37694;51.748;14.326;2023-02-28T02:08:30;22.00;38.60
51613;DHT22;37694;51.748;14.326;2023-02-28T02:10:57;22.00;38.60
51613;DHT22;37694;51.748;14.326;2023-02-28T02:18:53;21.90;38.50
51613;DHT22;37694;51.748;14.326;2023-02-28T02:27:20;21.80;38.50
51613;DHT22;37694;51.748;14.326;2023-02-28T02:38:36;21.80;38.50
51613;DHT22;37694;51.748;14.326;2023-02-28T02:46:35;21.80;38.80
51613;DHT22;37694;51.748;14.326;2023-02-28T02:49:06;21.70;38.60
51613;DHT22;37694;51.748;14.326;2023-02-28T02:51:33;21.80;38.70
51613;DHT22;37694;51.748;14.326;2023-02-28T02:54:06;21.80;38.70
51613;DHT22;37694;51.748;14.326;2023-02-28T02:56:33;21.80;38.60
51613;DHT22;37694;51.748;14.326;2023-02-28T02:59:04;21.80;38.80
51613;DHT22;37694;51.748;14.326;2023-02-28T03:01:32;21.70;38.70
51613;DHT22;37694;51.748;14.326;2023-02-28T03:04:10;21.70;38.60
51613;DHT22;37694;51.748;14.326;2023-02-28T03:06:36;21.70;38.50
51613;DHT22;37694;51.748;14.326;2023-02-28T03:09:02;21.70;38.50
51613;DHT22;37694;51.748;14.326;2023-02-28T03:11:30;21.70;38.40
51613;DHT22;37694;51.748;14.326;2023-02-28T03:25:02;21.60;38.40
51613;DHT22;37694;51.748;14.326;2023-02-28T03:30:22;21.50;38.40
51613;DHT22;37694;51.748;14.326;2023-02-28T03:35:21;21.50;38.50
51613;DHT22;37694;51.748;14.326;2023-02-28T03:37:50;21.50;38.50
51613;DHT22;37694;51.748;14.326;2023-02-28T03:40:21;21.50;38.50
51613;DHT22;37694;51.748;14.326;2023-02-28T03:42:51;21.50;38.50
51613;DHT22;37694;51.748;14.326;2023-02-28T03:45:25;21.40;38.50
51613;DHT22;37694;51.748;14.326;2023-02-28T03:48:02;21.40;38.50
51613;DHT22;37694;51.748;14.326;2023-02-28T03:50:41;21.40;38.70
51613;DHT22;37694;51.748;14.326;2023-02-28T03:53:14;21.50;38.70
51613;DHT22;37694;51.748;14.326;2023-02-28T03:56:08;21.50;38.80
51613;DHT22;37694;51.748;14.326;2023-02-28T04:03:59;21.50;38.70
51613;DHT22;37694;51.748;14.326;2023-02-28T04:06:24;21.50;38.70
51613;DHT22;37694;51.748;14.326;2023-02-28T04:08:50;21.40;38.70
51613;DHT22;37694;51.748;14.326;2023-02-28T04:13:42;21.40;38.60
51613;DHT22;37694;51.748;14.326;2023-02-28T04:16:08;21.40;38.40
51613;DHT22;37694;51.748;14.326;2023-02-28T04:18:41;21.40;38.50
51613;DHT22;37694;51.748;14.326;2023-02-28T04:21:08;21.40;38.40
51613;DHT22;37694;51.748;14.326;2023-02-28T04:23:34;21.40;38.50
51613;DHT22;37694;51.748;14.326;2023-02-28T04:26:00;21.40;38.60
51613;DHT22;37694;51.748;14.326;2023-02-28T04:28:26;21.40;38.60
51613;DHT22;37694;51.748;14.326;2023-02-28T04:31:00;21.40;38.50
51613;DHT22;37694;51.748;14.326;2023-02-28T04:33:26;21.40;38.40
51613;DHT22;37694;51.748;14.326;2023-02-28T04:35:59;21.50;38.50
51613;DHT22;37694;51.748;14.326;2023-02-28T04:38:25;21.50;38.40
51613;DHT22;37694;51.748;14.326;2023-02-28T04:40:50;21.50;38.50
51613;DHT22;37694;51.748;14.326;2023-02-28T04:43:16;21.60;38.50
51613;DHT22;37694;51.748;14.326;2023-02-28T04:45:42;21.70;38.40
51613;DHT22;37694;51.748;14.326;2023-02-28T04:48:08;21.80;38.30
51613;DHT22;37694;51.748;14.326;2023-02-28T04:50:33;21.90;38.20
51613;DHT22;37694;51.748;14.326;2023-02-28T04:52:59;22.00;38.10
51613;DHT22;37694;51.748;14.326;2023-02-28T04:55:24;22.10;38.00
51613;DHT22;37694;51.748;14.326;2023-02-28T04:57:50;22.20;37.90
51613;DHT22;37694;51.748;14.326;2023-02-28T05:00:16;22.20;38.00
51613;DHT22;37694;51.748;14.326;2023-02-28T05:02:42;22.40;38.20
51613;DHT22;37694;51.748;14.326;2023-02-28T05:05:08;22.40;38.20
51613;DHT22;37694;51.748;14.326;2023-02-28T05:07:34;22.50;38.30
51613;DHT22;37694;51.748;14.326;2023-02-28T05:10:00;22.50;38.30
51613;DHT22;37694;51.748;14.326;2023-02-28T05:12:25;22.60;38.30
51613;DHT22;37694;51.748;14.326;2023-02-28T05:14:51;22.70;38.40
51613;DHT22;37694;51.748;14.326;2023-02-28T05:17:16;22.80;38.30
51613;DHT22;37694;51.748;14.326;2023-02-28T05:19:42;22.90;38.20
51613;DHT22;37694;51.748;14.326;2023-02-28T05:22:13;23.00;38.20
51613;DHT22;37694;51.748;14.326;2023-02-28T05:24:40;23.10;38.10
51613;DHT22;37694;51.748;14.326;2023-02-28T05:27:08;23.10;38.10
51613;DHT22;37694;51.748;14.326;2023-02-28T05:29:34;23.20;38.10
51613;DHT22;37694;51.748;14.326;2023-02-28T05:32:10;23.30;38.10
51613;DHT22;37694;51.748;14.326;2023-02-28T05:34:37;23.30;38.10
51613;DHT22;37694;51.748;14.326;2023-02-28T05:37:03;23.40;38.10
51613;DHT22;37694;51.748;14.326;2023-02-28T05:39:29;23.50;38.10
51613;DHT22;37694;51.748;14.326;2023-02-28T05:41:55;23.50;38.00
51613;DHT22;37694;51.748;14.326;2023-02-28T05:44:20;23.60;38.00
51613;DHT22;37694;51.748;14.326;2023-02-28T05:46:46;23.60;38.00
51613;DHT22;37694;51.748;14.326;2023-02-28T05:49:12;23.70;38.00
51613;DHT22;37694;51.748;14.326;2023-02-28T05:51:37;23.70;37.90
51613;DHT22;37694;51.748;14.326;2023-02-28T05:54:06;23.70;37.90
51613;DHT22;37694;51.748;14.326;2023-02-28T05:56:32;23.80;37.90
51613;DHT22;37694;51.748;14.326;2023-02-28T05:59:00;23.80;37.80
51613;DHT22;37694;51.748;14.326;2023-02-28T06:01:38;23.80;37.90
51613;DHT22;37694;51.748;14.326;2023-02-28T06:04:09;23.80;37.90
51613;DHT22;37694;51.748;14.326;2023-02-28T06:06:36;23.80;38.10
51613;DHT22;37694;51.748;14.326;2023-02-28T06:09:06;23.80;38.40
51613;DHT22;37694;51.748;14.326;2023-02-28T06:11:32;23.90;38.50
51613;DHT22;37694;51.748;14.326;2023-02-28T06:13:59;23.90;38.40
51613;DHT22;37694;51.748;14.326;2023-02-28T06:16:27;23.80;38.70
51613;DHT22;37694;51.748;14.326;2023-02-28T06:18:53;23.80;38.70
51613;DHT22;37694;51.748;14.326;2023-02-28T06:21:22;23.80;38.70
51613;DHT22;37694;51.748;14.326;2023-02-28T06:23:47;23.80;38.80
51613;DHT22;37694;51.748;14.326;2023-02-28T06:26:13;23.70;38.80
51613;DHT22;37694;51.748;14.326;2023-02-28T06:28:39;23.80;38.90
51613;DHT22;37694;51.748;14.326;2023-02-28T06:31:13;23.70;38.90
51613;DHT22;37694;51.748;14.326;2023-02-28T06:33:39;23.70;38.90
51613;DHT22;37694;51.748;14.326;2023-02-28T06:36:06;23.70;40.80
51613;DHT22;37694;51.748;14.326;2023-02-28T06:38:33;23.70;42.90
51613;DHT22;37694;51.748;14.326;2023-02-28T06:40:59;23.70;43.10
51613;DHT22;37694;51.748;14.326;2023-02-28T06:43:28;23.80;43.00
51613;DHT22;37694;51.748;14.326;2023-02-28T06:45:55;23.90;42.80
51613;DHT22;37694;51.748;14.326;2023-02-28T06:48:21;23.90;42.90
51613;DHT22;37694;51.748;14.326;2023-02-28T06:50:47;23.90;43.00
51613;DHT22;37694;51.748;14.326;2023-02-28T06:53:13;23.90;42.80
51613;DHT22;37694;51.748;14.326;2023-02-28T06:55:40;23.90;42.40
51613;DHT22;37694;51.748;14.326;2023-02-28T06:58:06;23.80;43.70
51613;DHT22;37694;51.748;14.326;2023-02-28T07:00:41;23.80;44.70
51613;DHT22;37694;51.748;14.326;2023-02-28T07:03:07;23.80;44.60
51613;DHT22;37694;51.748;14.326;2023-02-28T07:05:35;23.80;44.40
51613;DHT22;37694;51.748;14.326;2023-02-28T07:08:01;23.80;44.80
51613;DHT22;37694;51.748;14.326;2023-02-28T07:10:28;23.80;45.10
51613;DHT22;37694;51.748;14.326;2023-02-28T07:12:54;23.80;45.20
51613;DHT22;37694;51.748;14.326;2023-02-28T07:15:20;23.70;45.00
51613;DHT22;37694;51.748;14.326;2023-02-28T07:17:45;23.70;44.70
51613;DHT22;37694;51.748;14.326;2023-02-28T07:20:11;23.70;44.40
51613;DHT22;37694;51.748;14.326;2023-02-28T07:22:37;23.70;45.40
51613;DHT22;37694;51.748;14.326;2023-02-28T07:25:05;23.70;44.40
51613;DHT22;37694;51.748;14.326;2023-02-28T07:27:31;23.60;43.80
51613;DHT22;37694;51.748;14.326;2023-02-28T07:29:56;23.60;43.50
51613;DHT22;37694;51.748;14.326;2023-02-28T07:32:22;23.60;43.50
51613;DHT22;37694;51.748;14.326;2023-02-28T07:34:48;23.60;43.20
51613;DHT22;37694;51.748;14.326;2023-02-28T07:37:14;23.50;43.10
51613;DHT22;37694;51.748;14.326;2023-02-28T07:39:40;23.60;43.00
51613;DHT22;37694;51.748;14.326;2023-02-28T07:42:09;23.60;42.90
51613;DHT22;37694;51.748;14.326;2023-02-28T07:44:37;23.50;42.60
51613;DHT22;37694;51.748;14.326;2023-02-28T07:47:09;23.50;42.60
51613;DHT22;37694;51.748;14.326;2023-02-28T07:49:36;23.50;42.50
51613;DHT22;37694;51.748;14.326;2023-02-28T07:52:04;23.50;42.50
51613;DHT22;37694;51.748;14.326;2023-02-28T07:54:30;23.50;42.50
51613;DHT22;37694;51.748;14.326;2023-02-28T07:56:55;23.50;42.50
51613;DHT22;37694;51.748;14.326;2023-02-28T07:59:21;23.50;42.20
51613;DHT22;37694;51.748;14.326;2023-02-28T08:01:47;23.50;42.10
51613;DHT22;37694;51.748;14.326;2023-02-28T08:04:18;23.50;42.20
51613;DHT22;37694;51.748;14.326;2023-02-28T08:06:44;23.50;42.00
51613;DHT22;37694;51.748;14.326;2023-02-28T08:09:10;23.50;42.10
51613;DHT22;37694;51.748;14.326;2023-02-28T08:11:36;23.50;41.90
51613;DHT22;37694;51.748;14.326;2023-02-28T08:14:02;23.50;41.90
51613;DHT22;37694;51.748;14.326;2023-02-28T08:16:27;23.40;42.00
51613;DHT22;37694;51.748;14.326;2023-02-28T08:18:53;23.50;41.90
51613;DHT22;37694;51.748;14.326;2023-02-28T08:21:20;23.50;41.80
51613;DHT22;37694;51.748;14.326;2023-02-28T08:23:47;23.50;41.80
51613;DHT22;37694;51.748;14.326;2023-02-28T08:26:13;23.50;41.70
51613;DHT22;37694;51.748;14.326;2023-02-28T08:28:39;23.50;41.80
51613;DHT22;37694;51.748;14.326;2023-02-28T08:31:10;23.50;41.70
51613;DHT22;37694;51.748;14.326;2023-02-28T08:33:37;23.50;41.60
51613;DHT22;37694;51.748;14.326;2023-02-28T08:36:04;23.60;41.60
51613;DHT22;37694;51.748;14.326;2023-02-28T08:38:30;23.60;41.50
51613;DHT22;37694;51.748;14.326;2023-02-28T08:41:00;23.60;41.30
51613;DHT22;37694;51.748;14.326;2023-02-28T08:43:27;23.60;41.30
51613;DHT22;37694;51.748;14.326;2023-02-28T08:45:54;23.60;41.20
51613;DHT22;37694;51.748;14.326;2023-02-28T08:48:25;23.60;41.10
51613;DHT22;37694;51.748;14.326;2023-02-28T08:51:04;23.60;41.00
51613;DHT22;37694;51.748;14.326;2023-02-28T08:53:30;23.60;41.00
51613;DHT22;37694;51.748;14.326;2023-02-28T08:56:01;23.70;40.90
51613;DHT22;37694;51.748;14.326;2023-02-28T08:58:27;23.70;40.80
51613;DHT22;37694;51.748;14.326;2023-02-28T09:00:54;23.70;40.80
51613;DHT22;37694;51.748;14.326;2023-02-28T09:03:20;23.70;40.80
51613;DHT22;37694;51.748;14.326;2023-02-28T09:06:13;23.70;40.60
51613;DHT22;37694;51.748;14.326;2023-02-28T09:08:39;23.70;40.70
51613;DHT22;37694;51.748;14.326;2023-02-28T09:11:05;23.70;40.60
51613;DHT22;37694;51.748;14.326;2023-02-28T09:13:32;23.70;40.50
51613;DHT22;37694;51.748;14.326;2023-02-28T09:16:00;23.80;40.50
51613;DHT22;37694;51.748;14.326;2023-02-28T09:18:26;23.70;40.40
51613;DHT22;37694;51.748;14.326;2023-02-28T09:20:52;23.80;40.40
51613;DHT22;37694;51.748;14.326;2023-02-28T09:23:18;23.80;40.40
51613;DHT22;37694;51.748;14.326;2023-02-28T09:25:51;23.80;40.20
51613;DHT22;37694;51.748;14.326;2023-02-28T09:28:18;23.80;40.20
51613;DHT22;37694;51.748;14.326;2023-02-28T09:30:46;23.90;40.20
51613;DHT22;37694;51.748;14.326;2023-02-28T09:33:12;23.90;40.10
51613;DHT22;37694;51.748;14.326;2023-02-28T09:35:38;24.00;40.00
51613;DHT22;37694;51.748;14.326;2023-02-28T09:38:04;24.10;39.90
51613;DHT22;37694;51.748;14.326;2023-02-28T09:40:31;24.20;39.80
51613;DHT22;37694;51.748;14.326;2023-02-28T09:42:58;24.20;39.60
51613;DHT22;37694;51.748;14.326;2023-02-28T09:45:35;24.30;39.40
51613;DHT22;37694;51.748;14.326;2023-02-28T09:48:12;24.30;39.20
51613;DHT22;37694;51.748;14.326;2023-02-28T09:50:48;24.40;39.20
51613;DHT22;37694;51.748;14.326;2023-02-28T09:53:36;24.40;39.10
51613;DHT22;37694;51.748;14.326;2023-02-28T09:56:08;24.50;38.90
51613;DHT22;37694;51.748;14.326;2023-02-28T09:58:37;24.40;38.90
51613;DHT22;37694;51.748;14.326;2023-02-28T10:01:12;24.40;39.00
51613;DHT22;37694;51.748;14.326;2023-02-28T10:03:45;24.40;38.80
51613;DHT22;37694;51.748;14.326;2023-02-28T10:06:20;24.40;38.70
51613;DHT22;37694;51.748;14.326;2023-02-28T10:09:01;24.40;38.80
51613;DHT22;37694;51.748;14.326;2023-02-28T10:11:28;24.30;38.70
51613;DHT22;37694;51.748;14.326;2023-02-28T10:14:04;24.40;38.60
51613;DHT22;37694;51.748;14.326;2023-02-28T10:16:46;24.40;38.50
51613;DHT22;37694;51.748;14.326;2023-02-28T10:24:53;24.30;38.40
51613;DHT22;37694;51.748;14.326;2023-02-28T10:27:25;24.30;38.20
51613;DHT22;37694;51.748;14.326;2023-02-28T10:29:56;24.20;38.20
51613;DHT22;37694;51.748;14.326;2023-02-28T10:32:25;24.20;38.00
51613;DHT22;37694;51.748;14.326;2023-02-28T10:35:09;24.20;38.10
51613;DHT22;37694;51.748;14.326;2023-02-28T10:37:43;24.30;38.10
51613;DHT22;37694;51.748;14.326;2023-02-28T10:40:33;24.30;38.10
51613;DHT22;37694;51.748;14.326;2023-02-28T10:45:38;24.40;37.80
51613;DHT22;37694;51.748;14.326;2023-02-28T10:56:22;24.50;37.90
51613;DHT22;37694;51.748;14.326;2023-02-28T10:59:26;24.50;37.60
51613;DHT22;37694;51.748;14.326;2023-02-28T11:01:52;24.50;37.80
51613;DHT22;37694;51.748;14.326;2023-02-28T11:07:00;24.50;37.80
51613;DHT22;37694;51.748;14.326;2023-02-28T11:09:33;24.50;37.80
51613;DHT22;37694;51.748;14.326;2023-02-28T11:12:02;24.60;37.70
51613;DHT22;37694;51.748;14.326;2023-02-28T11:14:31;24.50;37.60
51613;DHT22;37694;51.748;14.326;2023-02-28T11:17:13;24.50;37.30
51613;DHT22;37694;51.748;14.326;2023-02-28T11:19:44;24.60;37.10
51613;DHT22;37694;51.748;14.326;2023-02-28T11:22:11;24.60;37.00
51613;DHT22;37694;51.748;14.326;2023-02-28T11:24:44;24.60;36.90
51613;DHT22;37694;51.748;14.326;2023-02-28T11:27:47;24.60;36.80
51613;DHT22;37694;51.748;14.326;2023-02-28T11:32:52;24.70;36.30
51613;DHT22;37694;51.748;14.326;2023-02-28T11:35:23;24.70;36.60
51613;DHT22;37694;51.748;14.326;2023-02-28T11:37:50;24.70;36.40
51613;DHT22;37694;51.748;14.326;2023-02-28T11:40:18;24.70;36.60
51613;DHT22;37694;51.748;14.326;2023-02-28T11:42:57;24.70;36.20
51613;DHT22;37694;51.748;14.326;2023-02-28T11:48:05;24.80;36.10
51613;DHT22;37694;51.748;14.326;2023-02-28T11:56:33;24.90;36.20
51613;DHT22;37694;51.748;14.326;2023-02-28T12:07:21;24.80;35.90
51613;DHT22;37694;51.748;14.326;2023-02-28T12:09:59;24.80;35.70
51613;DHT22;37694;51.748;14.326;2023-02-28T12:29:21;24.80;36.00
51613;DHT22;37694;51.748;14.326;2023-02-28T12:31:50;24.80;36.00
51613;DHT22;37694;51.748;14.326;2023-02-28T12:34:20;24.80;35.80
51613;DHT22;37694;51.748;14.326;2023-02-28T12:36:48;24.90;35.60
51613;DHT22;37694;51.748;14.326;2023-02-28T12:39:25;24.90;35.60
51613;DHT22;37694;51.748;14.326;2023-02-28T12:41:59;24.90;35.90
51613;DHT22;37694;51.748;14.326;2023-02-28T12:44:45;24.90;35.80
51613;DHT22;37694;51.748;14.326;2023-02-28T12:47:16;24.90;35.90
51613;DHT22;37694;51.748;14.326;2023-02-28T13:00:25;24.90;35.80
51613;DHT22;37694;51.748;14.326;2023-02-28T13:10:56;24.90;35.90
51613;DHT22;37694;51.748;14.326;2023-02-28T13:13:29;24.90;36.00
51613;DHT22;37694;51.748;14.326;2023-02-28T13:16:05;24.90;35.90
51613;DHT22;37694;51.748;14.326;2023-02-28T13:18:38;24.90;35.90
51613;DHT22;37694;51.748;14.326;2023-02-28T13:21:09;24.90;36.00
51613;DHT22;37694;51.748;14.326;2023-02-28T13:34:32;24.90;35.80
51613;DHT22;37694;51.748;14.326;2023-02-28T13:39:49;24.80;35.60
51613;DHT22;37694;51.748;14.326;2023-02-28T13:47:35;24.70;35.80
51613;DHT22;37694;51.748;14.326;2023-02-28T13:53:14;24.70;36.00
51613;DHT22;37694;51.748;14.326;2023-02-28T13:56:23;24.70;36.20
51613;DHT22;37694;51.748;14.326;2023-02-28T13:58:58;24.60;36.20
51613;DHT22;37694;51.748;14.326;2023-02-28T14:04:54;24.60;36.40
51613;DHT22;37694;51.748;14.326;2023-02-28T14:07:31;24.60;36.20
51613;DHT22;37694;51.748;14.326;2023-02-28T14:10:04;24.50;36.40
51613;DHT22;37694;51.748;14.326;2023-02-28T14:15:41;24.50;36.20
51613;DHT22;37694;51.748;14.326;2023-02-28T14:18:22;24.50;36.40
51613;DHT22;37694;51.748;14.326;2023-02-28T14:20:51;24.40;36.20
51613;DHT22;37694;51.748;14.326;2023-02-28T14:23:48;24.40;36.10
51613;DHT22;37694;51.748;14.326;2023-02-28T14:26:38;24.40;36.00
51613;DHT22;37694;51.748;14.326;2023-02-28T14:31:58;24.30;36.40
51613;DHT22;37694;51.748;14.326;2023-02-28T14:37:16;24.30;36.40
51613;DHT22;37694;51.748;14.326;2023-02-28T14:39:44;24.30;36.20
51613;DHT22;37694;51.748;14.326;2023-02-28T14:44:58;24.20;36.20
51613;DHT22;37694;51.748;14.326;2023-02-28T14:47:31;24.20;36.40
51613;DHT22;37694;51.748;14.326;2023-02-28T14:49:58;24.10;36.30
51613;DHT22;37694;51.748;14.326;2023-02-28T14:52:28;24.10;36.50
51613;DHT22;37694;51.748;14.326;2023-02-28T14:55:17;24.10;36.50
51613;DHT22;37694;51.748;14.326;2023-02-28T14:57:54;24.10;37.40
51613;DHT22;37694;51.748;14.326;2023-02-28T15:00:29;24.00;36.60
51613;DHT22;37694;51.748;14.326;2023-02-28T15:02:56;24.00;36.70
51613;DHT22;37694;51.748;14.326;2023-02-28T15:05:27;24.00;36.70
51613;DHT22;37694;51.748;14.326;2023-02-28T15:10:31;23.90;36.50
51613;DHT22;37694;51.748;14.326;2023-02-28T15:13:06;23.90;36.60
51613;DHT22;37694;51.748;14.326;2023-02-28T15:16:03;23.90;36.30
51613;DHT22;37694;51.748;14.326;2023-02-28T15:21:10;23.80;36.20
51613;DHT22;37694;51.748;14.326;2023-02-28T15:23:38;23.70;36.10
51613;DHT22;37694;51.748;14.326;2023-02-28T15:26:06;23.70;36.20
51613;DHT22;37694;51.748;14.326;2023-02-28T15:28:32;23.70;36.30
51613;DHT22;37694;51.748;14.326;2023-02-28T15:31:00;23.70;36.20
51613;DHT22;37694;51.748;14.326;2023-02-28T15:33:31;23.70;36.30
51613;DHT22;37694;51.748;14.326;2023-02-28T15:36:29;23.60;36.60
51613;DHT22;37694;51.748;14.326;2023-02-28T15:38:55;23.60;36.60
51613;DHT22;37694;51.748;14.326;2023-02-28T15:41:26;23.60;36.90
51613;DHT22;37694;51.748;14.326;2023-02-28T15:44:30;23.60;36.80
51613;DHT22;37694;51.748;14.326;2023-02-28T15:49:24;23.50;37.20
51613;DHT22;37694;51.748;14.326;2023-02-28T15:51:52;23.50;37.70
51613;DHT22;37694;51.748;14.326;2023-02-28T15:54:35;23.50;37.80
51613;DHT22;37694;51.748;14.326;2023-02-28T15:57:06;23.50;37.70
51613;DHT22;37694;51.748;14.326;2023-02-28T15:59:36;23.50;37.50
51613;DHT22;37694;51.748;14.326;2023-02-28T16:02:22;23.50;37.50
51613;DHT22;37694;51.748;14.326;2023-02-28T16:05:24;23.50;37.50
51613;DHT22;37694;51.748;14.326;2023-02-28T16:07:55;23.50;37.30
51613;DHT22;37694;51.748;14.326;2023-02-28T16:10:22;23.50;37.50
51613;DHT22;37694;51.748;14.326;2023-02-28T16:12:54;23.50;37.40
51613;DHT22;37694;51.748;14.326;2023-02-28T16:15:28;23.50;38.10
51613;DHT22;37694;51.748;14.326;2023-02-28T16:17:55;23.40;38.30
51613;DHT22;37694;51.748;14.326;2023-02-28T16:20:27;23.30;38.40
51613;DHT22;37694;51.748;14.326;2023-02-28T16:22:53;23.30;38.10
51613;DHT22;37694;51.748;14.326;2023-02-28T16:25:23;23.20;38.00
51613;DHT22;37694;51.748;14.326;2023-02-28T16:27:50;23.20;38.10
51613;DHT22;37694;51.748;14.326;2023-02-28T16:30:27;23.10;38.30
51613;DHT22;37694;51.748;14.326;2023-02-28T16:32:55;23.20;38.50
51613;DHT22;37694;51.748;14.326;2023-02-28T16:35:21;23.10;38.70
51613;DHT22;37694;51.748;14.326;2023-02-28T16:37:47;23.10;38.30
51613;DHT22;37694;51.748;14.326;2023-02-28T16:40:22;23.20;38.60
51613;DHT22;37694;51.748;14.326;2023-02-28T16:42:50;23.30;38.30
51613;DHT22;37694;51.748;14.326;2023-02-28T16:45:26;23.20;38.40
51613;DHT22;37694;51.748;14.326;2023-02-28T16:47:52;23.30;38.40
51613;DHT22;37694;51.748;14.326;2023-02-28T16:50:23;23.30;38.40
51613;DHT22;37694;51.748;14.326;2023-02-28T16:52:49;23.30;38.30
51613;DHT22;37694;51.748;14.326;2023-02-28T16:55:17;23.30;38.10
51613;DHT22;37694;51.748;14.326;2023-02-28T16:57:44;23.30;38.10
51613;DHT22;37694;51.748;14.326;2023-02-28T17:00:13;23.30;38.00
51613;DHT22;37694;51.748;14.326;2023-02-28T17:02:39;23.30;37.90
51613;DHT22;37694;51.748;14.326;2023-02-28T17:05:05;23.30;37.80
51613;DHT22;37694;51.748;14.326;2023-02-28T17:07:32;23.30;37.80
51613;DHT22;37694;51.748;14.326;2023-02-28T17:09:58;23.30;37.90
51613;DHT22;37694;51.748;14.326;2023-02-28T17:12:24;23.30;38.00
51613;DHT22;37694;51.748;14.326;2023-02-28T17:14:50;23.30;37.90
51613;DHT22;37694;51.748;14.326;2023-02-28T17:17:19;23.30;38.10
51613;DHT22;37694;51.748;14.326;2023-02-28T17:19:45;23.30;38.20
51613;DHT22;37694;51.748;14.326;2023-02-28T17:22:11;23.40;38.30
51613;DHT22;37694;51.748;14.326;2023-02-28T17:24:36;23.40;38.40
51613;DHT22;37694;51.748;14.326;2023-02-28T17:27:03;23.60;38.40
51613;DHT22;37694;51.748;14.326;2023-02-28T17:29:29;23.60;38.40
51613;DHT22;37694;51.748;14.326;2023-02-28T17:31:55;23.70;38.40
51613;DHT22;37694;51.748;14.326;2023-02-28T17:34:21;23.70;38.50
51613;DHT22;37694;51.748;14.326;2023-02-28T17:36:48;23.80;38.50
51613;DHT22;37694;51.748;14.326;2023-02-28T17:39:14;23.80;38.60
51613;DHT22;37694;51.748;14.326;2023-02-28T17:41:45;23.90;38.50
51613;DHT22;37694;51.748;14.326;2023-02-28T17:44:11;23.80;38.30
51613;DHT22;37694;51.748;14.326;2023-02-28T17:46:37;23.90;38.60
51613;DHT22;37694;51.748;14.326;2023-02-28T17:49:03;23.90;38.70
51613;DHT22;37694;51.748;14.326;2023-02-28T17:51:29;23.90;39.20
51613;DHT22;37694;51.748;14.326;2023-02-28T17:53:54;23.90;39.20
51613;DHT22;37694;51.748;14.326;2023-02-28T17:56:22;23.90;39.00
51613;DHT22;37694;51.748;14.326;2023-02-28T17:58:49;23.90;38.90
51613;DHT22;37694;51.748;14.326;2023-02-28T18:01:16;23.90;39.00
51613;DHT22;37694;51.748;14.326;2023-02-28T18:03:42;24.00;39.30
51613;DHT22;37694;51.748;14.326;2023-02-28T18:06:14;23.90;39.30
51613;DHT22;37694;51.748;14.326;2023-02-28T18:08:41;23.90;39.70
51613;DHT22;37694;51.748;14.326;2023-02-28T18:11:07;23.90;39.80
51613;DHT22;37694;51.748;14.326;2023-02-28T18:13:43;23.90;40.10
51613;DHT22;37694;51.748;14.326;2023-02-28T18:16:09;23.90;40.40
51613;DHT22;37694;51.748;14.326;2023-02-28T18:18:35;23.90;40.50